Share

Kaltag, AK

Kaltag (PAKV) Elev 200 ft | 64.32 °N, 158.74 °W | Change Station

Current weather conditions updated 31 minutes ago

Clear
Clear
37 °F
Feels Like 30 °F
N
9
Wind Variable Wind from NE
Sunrise 6:43 AM
Sunset 10:25 PM
Moon Waning Gibbous

Today is forecast to be nearly the same temperature as yesterday.

Pressure 29.81 in
Visibility 10.0 miles
Clouds Clear
Windchill 30 °F
Dew Point 26 °F
Humidity 65%
Rainfall 0.00 in
Snow Depth Not available.
UV 0 out of 16
Pollen Not available.
Air Quality Not available.
Flu Activity Sporadic
METAR PAKV 201553Z AUTO 04008KT 10SM CLR 03/M03 A2980 RMK AO2 SLP094 T00281033 TSNO

More Conditions Fewer Conditions

Pressure 29.81 in
Visibility 10.0 miles
Clouds Clear
Windchill 30 °F
Dew Point 26 °F
Humidity 65%
Rainfall 0.00 in
Snow Depth Not available.
UV 0 out of 16
Pollen Not available.
Air Quality Not available.
Flu Activity Sporadic
METAR PAKV 201553Z AUTO 04008KT 10SM CLR 03/M03 A2980 RMK AO2 SLP094 T00281033 TSNO

More Conditions Fewer Conditions

10-Day Weather Forecast

Almanac

Astronomy

Apr. 20, 2014 Rise Set
Actual Time 6:43 AM AKDT 10:25 PM AKDT
Civil Twilight 5:44 AM AKDT 11:26 PM AKDT
Nautical Twilight 4:08 AM AKDT 1:06 AM AKDT
Astronomical Twilight Sun does not rise Sun does not rise
Moon 4:03 AM AKDT 10:29 AM AKDT
Length of Visible Light 17h 41m
Length of Day
15h 42m
Tomorrow will be 6m 42s longer.
Waning Gibbous, 68% of the Moon is Illuminated
Today
Waning Gibbous
Apr 22
Last Quarter
Apr 29
New
May 6
First Quarter
May 14
Full

Today's Extremes

State Highs State Lows

Community

  • Columbine
    Columbine
  • Easter Sunrise
    Easter Sunrise
  • Easter Eve - The Promise - Lake Palestine, TX
    Easter Eve - The Promise - Lake Palestine, TX
  • Happy Easter
    Happy Easter
  • EARLY FOGGY MORNING
    EARLY FOGGY MORNING

WunderPhotos

Upload Photos

1,703,268 photos uploaded!

WunderBlogs® & News

Nearby

Snow Depth

Station Depth Elevation
Pargon Creek 2 in 300 ft
Rocky Point 4 in 500 ft
Gobblers Knob 8 in 2030 ft
Susitna Valley High 17 in 375 ft
Coldfoot 22 in 1040 ft

Coastal Water Temperatures

Place Temperature
No Stations Reporting

Earthquake Activity

City Distance Mag. Time & Date
No recent earthquake activity has been reported nearby.
Minimum magnitude displayed is 2.5.

Nearby Weather Stations

Station Location Temp. Windchill Dew Point Humidity Wind Precip. Elev Updated Type
RAWS KAIYUH AK, Kaltag, AK 31 °F 27 °F 26 °F 80% NNE  at  4 mph 0.00 in / hr 109 ft 7:21 AM AKDT MADIS

Show More Stations Show Fewer Stations

What do you think?

We're not finished. Please let us know what you like, what you don't like, and what you are still missing.